sensor_id;sensor_type;location;lat;lon;timestamp;P1;durP1;ratioP1;P2;durP2;ratioP2
19149;SDS011;9707;49.158;8.632;2023-07-30T00:01:38;1.77;;;0.80;;
19149;SDS011;9707;49.158;8.632;2023-07-30T00:04:03;1.08;;;0.82;;
19149;SDS011;9707;49.158;8.632;2023-07-30T00:06:29;1.02;;;0.93;;
19149;SDS011;9707;49.158;8.632;2023-07-30T00:08:54;0.70;;;0.60;;
19149;SDS011;9707;49.158;8.632;2023-07-30T00:11:19;1.70;;;0.60;;
19149;SDS011;9707;49.158;8.632;2023-07-30T00:13:44;1.50;;;0.73;;
19149;SDS011;9707;49.158;8.632;2023-07-30T00:16:10;2.38;;;1.30;;
19149;SDS011;9707;49.158;8.632;2023-07-30T00:18:35;0.80;;;0.70;;
19149;SDS011;9707;49.158;8.632;2023-07-30T00:21:00;0.70;;;0.70;;
19149;SDS011;9707;49.158;8.632;2023-07-30T00:23:26;1.58;;;0.73;;
19149;SDS011;9707;49.158;8.632;2023-07-30T00:25:51;2.45;;;1.00;;
19149;SDS011;9707;49.158;8.632;2023-07-30T00:28:16;1.52;;;1.00;;
19149;SDS011;9707;49.158;8.632;2023-07-30T00:30:41;0.93;;;0.57;;
19149;SDS011;9707;49.158;8.632;2023-07-30T00:33:07;1.75;;;0.65;;
19149;SDS011;9707;49.158;8.632;2023-07-30T00:35:32;1.25;;;0.90;;
19149;SDS011;9707;49.158;8.632;2023-07-30T00:37:57;2.08;;;0.77;;
19149;SDS011;9707;49.158;8.632;2023-07-30T00:40:22;1.58;;;0.80;;
19149;SDS011;9707;49.158;8.632;2023-07-30T00:42:48;0.77;;;0.77;;
19149;SDS011;9707;49.158;8.632;2023-07-30T00:45:13;2.03;;;0.90;;
19149;SDS011;9707;49.158;8.632;2023-07-30T00:47:38;1.25;;;0.82;;
19149;SDS011;9707;49.158;8.632;2023-07-30T00:50:05;1.63;;;0.70;;
19149;SDS011;9707;49.158;8.632;2023-07-30T00:52:32;1.38;;;0.98;;
19149;SDS011;9707;49.158;8.632;2023-07-30T00:54:57;1.48;;;1.20;;
19149;SDS011;9707;49.158;8.632;2023-07-30T00:57:24;1.98;;;0.75;;
19149;SDS011;9707;49.158;8.632;2023-07-30T00:59:50;1.45;;;1.00;;
19149;SDS011;9707;49.158;8.632;2023-07-30T01:02:16;1.88;;;1.00;;
19149;SDS011;9707;49.158;8.632;2023-07-30T01:04:43;1.30;;;1.08;;
19149;SDS011;9707;49.158;8.632;2023-07-30T01:07:09;1.80;;;0.95;;
19149;SDS011;9707;49.158;8.632;2023-07-30T01:09:34;3.70;;;1.20;;
19149;SDS011;9707;49.158;8.632;2023-07-30T01:12:00;3.50;;;1.02;;
19149;SDS011;9707;49.158;8.632;2023-07-30T01:14:27;1.70;;;0.82;;
19149;SDS011;9707;49.158;8.632;2023-07-30T01:16:52;1.48;;;0.90;;
19149;SDS011;9707;49.158;8.632;2023-07-30T01:19:18;1.92;;;0.93;;
19149;SDS011;9707;49.158;8.632;2023-07-30T01:21:43;1.35;;;1.02;;
19149;SDS011;9707;49.158;8.632;2023-07-30T01:24:09;1.90;;;1.17;;
19149;SDS011;9707;49.158;8.632;2023-07-30T01:26:37;1.20;;;1.10;;
19149;SDS011;9707;49.158;8.632;2023-07-30T01:29:09;1.92;;;1.30;;
19149;SDS011;9707;49.158;8.632;2023-07-30T01:31:40;1.02;;;0.93;;
19149;SDS011;9707;49.158;8.632;2023-07-30T01:34:06;1.50;;;1.02;;
19149;SDS011;9707;49.158;8.632;2023-07-30T01:36:34;1.38;;;1.17;;
19149;SDS011;9707;49.158;8.632;2023-07-30T01:39:00;1.60;;;1.20;;
19149;SDS011;9707;49.158;8.632;2023-07-30T01:41:26;2.38;;;1.00;;
19149;SDS011;9707;49.158;8.632;2023-07-30T01:43:51;1.30;;;1.10;;
19149;SDS011;9707;49.158;8.632;2023-07-30T01:46:17;3.08;;;1.30;;
19149;SDS011;9707;49.158;8.632;2023-07-30T01:48:42;1.38;;;1.10;;
19149;SDS011;9707;49.158;8.632;2023-07-30T01:51:07;2.35;;;1.30;;
19149;SDS011;9707;49.158;8.632;2023-07-30T01:53:33;2.45;;;1.30;;
19149;SDS011;9707;49.158;8.632;2023-07-30T01:55:58;3.55;;;1.30;;
19149;SDS011;9707;49.158;8.632;2023-07-30T01:58:23;1.90;;;1.13;;
19149;SDS011;9707;49.158;8.632;2023-07-30T02:00:48;1.30;;;1.02;;
19149;SDS011;9707;49.158;8.632;2023-07-30T02:03:14;1.95;;;1.08;;
19149;SDS011;9707;49.158;8.632;2023-07-30T02:05:39;1.60;;;1.20;;
19149;SDS011;9707;49.158;8.632;2023-07-30T02:08:04;2.45;;;1.25;;
19149;SDS011;9707;49.158;8.632;2023-07-30T02:10:29;1.02;;;0.88;;
19149;SDS011;9707;49.158;8.632;2023-07-30T02:12:55;1.63;;;0.98;;
19149;SDS011;9707;49.158;8.632;2023-07-30T02:15:20;1.25;;;1.05;;
19149;SDS011;9707;49.158;8.632;2023-07-30T02:17:45;2.17;;;1.25;;
19149;SDS011;9707;49.158;8.632;2023-07-30T02:20:10;1.20;;;1.00;;
19149;SDS011;9707;49.158;8.632;2023-07-30T02:22:36;3.22;;;1.70;;
19149;SDS011;9707;49.158;8.632;2023-07-30T02:25:01;2.03;;;1.30;;
19149;SDS011;9707;49.158;8.632;2023-07-30T02:27:26;1.65;;;1.20;;
19149;SDS011;9707;49.158;8.632;2023-07-30T02:29:51;1.98;;;1.30;;
19149;SDS011;9707;49.158;8.632;2023-07-30T02:32:17;3.50;;;1.35;;
19149;SDS011;9707;49.158;8.632;2023-07-30T02:34:42;2.67;;;1.45;;
19149;SDS011;9707;49.158;8.632;2023-07-30T02:37:07;2.30;;;1.33;;
19149;SDS011;9707;49.158;8.632;2023-07-30T02:39:32;2.65;;;1.42;;
19149;SDS011;9707;49.158;8.632;2023-07-30T02:41:58;2.22;;;1.30;;
19149;SDS011;9707;49.158;8.632;2023-07-30T02:44:23;2.75;;;1.20;;
19149;SDS011;9707;49.158;8.632;2023-07-30T02:46:49;3.75;;;1.52;;
19149;SDS011;9707;49.158;8.632;2023-07-30T02:49:14;2.60;;;1.33;;
19149;SDS011;9707;49.158;8.632;2023-07-30T02:51:39;1.20;;;1.10;;
19149;SDS011;9707;49.158;8.632;2023-07-30T02:54:05;4.35;;;1.30;;
19149;SDS011;9707;49.158;8.632;2023-07-30T02:56:30;4.10;;;1.50;;
19149;SDS011;9707;49.158;8.632;2023-07-30T02:58:56;3.50;;;1.27;;
19149;SDS011;9707;49.158;8.632;2023-07-30T03:01:23;1.85;;;1.25;;
19149;SDS011;9707;49.158;8.632;2023-07-30T03:03:48;2.50;;;1.60;;
19149;SDS011;9707;49.158;8.632;2023-07-30T03:06:14;2.33;;;1.48;;
19149;SDS011;9707;49.158;8.632;2023-07-30T03:08:41;2.60;;;1.42;;
19149;SDS011;9707;49.158;8.632;2023-07-30T03:11:06;2.05;;;1.60;;
19149;SDS011;9707;49.158;8.632;2023-07-30T03:13:32;1.75;;;1.30;;
19149;SDS011;9707;49.158;8.632;2023-07-30T03:15:57;1.92;;;1.58;;
19149;SDS011;9707;49.158;8.632;2023-07-30T03:18:23;1.75;;;1.25;;
19149;SDS011;9707;49.158;8.632;2023-07-30T03:20:48;2.22;;;1.60;;
19149;SDS011;9707;49.158;8.632;2023-07-30T03:23:13;1.42;;;1.30;;
19149;SDS011;9707;49.158;8.632;2023-07-30T03:25:38;5.60;;;1.90;;
19149;SDS011;9707;49.158;8.632;2023-07-30T03:28:04;3.08;;;1.65;;
19149;SDS011;9707;49.158;8.632;2023-07-30T03:30:29;4.47;;;1.60;;
19149;SDS011;9707;49.158;8.632;2023-07-30T03:32:55;2.67;;;1.30;;
19149;SDS011;9707;49.158;8.632;2023-07-30T03:35:20;1.75;;;1.35;;
19149;SDS011;9707;49.158;8.632;2023-07-30T03:37:45;1.77;;;1.30;;
19149;SDS011;9707;49.158;8.632;2023-07-30T03:40:10;1.67;;;1.05;;
19149;SDS011;9707;49.158;8.632;2023-07-30T03:42:36;3.33;;;1.30;;
19149;SDS011;9707;49.158;8.632;2023-07-30T03:45:01;3.25;;;1.35;;
19149;SDS011;9707;49.158;8.632;2023-07-30T03:47:26;2.67;;;1.45;;
19149;SDS011;9707;49.158;8.632;2023-07-30T03:49:52;2.42;;;1.00;;
19149;SDS011;9707;49.158;8.632;2023-07-30T03:52:17;2.70;;;1.30;;
19149;SDS011;9707;49.158;8.632;2023-07-30T03:54:42;5.10;;;1.73;;
19149;SDS011;9707;49.158;8.632;2023-07-30T03:57:08;2.88;;;1.73;;
19149;SDS011;9707;49.158;8.632;2023-07-30T03:59:33;1.95;;;1.30;;
19149;SDS011;9707;49.158;8.632;2023-07-30T04:01:58;1.98;;;1.52;;
19149;SDS011;9707;49.158;8.632;2023-07-30T04:04:24;2.70;;;1.60;;
19149;SDS011;9707;49.158;8.632;2023-07-30T04:06:49;2.35;;;1.30;;
19149;SDS011;9707;49.158;8.632;2023-07-30T04:09:14;3.30;;;1.40;;
19149;SDS011;9707;49.158;8.632;2023-07-30T04:11:40;2.47;;;1.48;;
19149;SDS011;9707;49.158;8.632;2023-07-30T04:14:05;2.80;;;1.55;;
19149;SDS011;9707;49.158;8.632;2023-07-30T04:16:32;2.13;;;1.58;;
19149;SDS011;9707;49.158;8.632;2023-07-30T04:18:58;1.98;;;1.60;;
19149;SDS011;9707;49.158;8.632;2023-07-30T04:21:23;2.25;;;1.80;;
19149;SDS011;9707;49.158;8.632;2023-07-30T04:23:49;3.35;;;1.83;;
19149;SDS011;9707;49.158;8.632;2023-07-30T04:26:14;2.08;;;1.60;;
19149;SDS011;9707;49.158;8.632;2023-07-30T04:28:39;2.00;;;1.58;;
19149;SDS011;9707;49.158;8.632;2023-07-30T04:31:05;2.65;;;1.67;;
19149;SDS011;9707;49.158;8.632;2023-07-30T04:33:30;3.63;;;1.90;;
19149;SDS011;9707;49.158;8.632;2023-07-30T04:35:55;2.47;;;2.03;;
19149;SDS011;9707;49.158;8.632;2023-07-30T04:38:20;2.40;;;1.90;;
19149;SDS011;9707;49.158;8.632;2023-07-30T04:40:46;3.78;;;1.88;;
19149;SDS011;9707;49.158;8.632;2023-07-30T04:43:11;3.80;;;1.70;;
19149;SDS011;9707;49.158;8.632;2023-07-30T04:45:36;2.42;;;1.98;;
19149;SDS011;9707;49.158;8.632;2023-07-30T04:48:01;2.22;;;1.85;;
19149;SDS011;9707;49.158;8.632;2023-07-30T04:50:27;2.85;;;2.08;;
19149;SDS011;9707;49.158;8.632;2023-07-30T04:52:52;2.13;;;1.65;;
19149;SDS011;9707;49.158;8.632;2023-07-30T04:55:17;3.05;;;1.83;;
19149;SDS011;9707;49.158;8.632;2023-07-30T04:57:42;4.22;;;1.65;;
19149;SDS011;9707;49.158;8.632;2023-07-30T05:00:08;1.85;;;1.50;;
19149;SDS011;9707;49.158;8.632;2023-07-30T05:02:33;2.80;;;1.48;;
19149;SDS011;9707;49.158;8.632;2023-07-30T05:04:59;1.75;;;1.40;;
19149;SDS011;9707;49.158;8.632;2023-07-30T05:07:24;2.00;;;1.17;;
19149;SDS011;9707;49.158;8.632;2023-07-30T05:09:49;2.05;;;1.27;;
19149;SDS011;9707;49.158;8.632;2023-07-30T05:12:15;1.65;;;1.55;;
19149;SDS011;9707;49.158;8.632;2023-07-30T05:14:40;1.48;;;1.00;;
19149;SDS011;9707;49.158;8.632;2023-07-30T05:17:05;1.55;;;1.30;;
19149;SDS011;9707;49.158;8.632;2023-07-30T05:19:30;1.83;;;1.27;;
19149;SDS011;9707;49.158;8.632;2023-07-30T05:21:57;2.20;;;1.10;;
19149;SDS011;9707;49.158;8.632;2023-07-30T05:24:24;1.23;;;1.10;;
19149;SDS011;9707;49.158;8.632;2023-07-30T05:26:49;2.33;;;1.05;;
19149;SDS011;9707;49.158;8.632;2023-07-30T05:29:14;3.78;;;1.25;;
19149;SDS011;9707;49.158;8.632;2023-07-30T05:31:40;1.50;;;1.30;;
19149;SDS011;9707;49.158;8.632;2023-07-30T05:34:05;2.33;;;1.50;;
19149;SDS011;9707;49.158;8.632;2023-07-30T05:36:30;2.00;;;1.20;;
19149;SDS011;9707;49.158;8.632;2023-07-30T05:38:55;1.55;;;0.90;;
19149;SDS011;9707;49.158;8.632;2023-07-30T05:41:21;2.53;;;1.60;;
19149;SDS011;9707;49.158;8.632;2023-07-30T05:43:46;2.28;;;1.10;;
19149;SDS011;9707;49.158;8.632;2023-07-30T05:46:12;4.20;;;1.20;;
19149;SDS011;9707;49.158;8.632;2023-07-30T05:48:37;1.83;;;1.10;;
19149;SDS011;9707;49.158;8.632;2023-07-30T05:51:03;3.38;;;1.00;;
19149;SDS011;9707;49.158;8.632;2023-07-30T05:53:28;1.63;;;0.90;;
19149;SDS011;9707;49.158;8.632;2023-07-30T05:55:54;1.42;;;1.02;;
19149;SDS011;9707;49.158;8.632;2023-07-30T05:58:19;2.60;;;1.25;;
19149;SDS011;9707;49.158;8.632;2023-07-30T06:00:44;1.60;;;0.82;;
19149;SDS011;9707;49.158;8.632;2023-07-30T06:03:09;2.10;;;1.20;;
19149;SDS011;9707;49.158;8.632;2023-07-30T06:05:38;2.08;;;1.50;;
19149;SDS011;9707;49.158;8.632;2023-07-30T06:08:05;1.88;;;1.15;;
19149;SDS011;9707;49.158;8.632;2023-07-30T06:10:30;1.40;;;1.00;;
19149;SDS011;9707;49.158;8.632;2023-07-30T06:12:56;1.70;;;1.10;;
19149;SDS011;9707;49.158;8.632;2023-07-30T06:15:21;3.58;;;1.45;;
19149;SDS011;9707;49.158;8.632;2023-07-30T06:17:46;3.15;;;1.30;;
19149;SDS011;9707;49.158;8.632;2023-07-30T06:20:11;2.00;;;1.30;;
19149;SDS011;9707;49.158;8.632;2023-07-30T06:22:37;2.90;;;1.48;;
19149;SDS011;9707;49.158;8.632;2023-07-30T06:25:02;3.85;;;1.50;;
19149;SDS011;9707;49.158;8.632;2023-07-30T06:27:27;2.55;;;1.30;;
19149;SDS011;9707;49.158;8.632;2023-07-30T06:29:53;2.17;;;1.40;;
19149;SDS011;9707;49.158;8.632;2023-07-30T06:32:18;3.03;;;1.50;;
19149;SDS011;9707;49.158;8.632;2023-07-30T06:34:43;1.73;;;1.20;;
19149;SDS011;9707;49.158;8.632;2023-07-30T06:37:08;2.92;;;1.35;;
19149;SDS011;9707;49.158;8.632;2023-07-30T06:39:34;2.58;;;1.40;;
19149;SDS011;9707;49.158;8.632;2023-07-30T06:41:59;2.08;;;1.40;;
19149;SDS011;9707;49.158;8.632;2023-07-30T06:44:24;3.03;;;1.42;;
19149;SDS011;9707;49.158;8.632;2023-07-30T06:46:50;1.77;;;1.55;;
19149;SDS011;9707;49.158;8.632;2023-07-30T06:49:16;2.05;;;1.30;;
19149;SDS011;9707;49.158;8.632;2023-07-30T06:51:41;4.55;;;1.83;;
19149;SDS011;9707;49.158;8.632;2023-07-30T06:54:06;2.30;;;1.70;;
19149;SDS011;9707;49.158;8.632;2023-07-30T06:56:32;1.63;;;1.30;;
19149;SDS011;9707;49.158;8.632;2023-07-30T06:58:57;1.35;;;1.25;;
19149;SDS011;9707;49.158;8.632;2023-07-30T07:01:25;4.97;;;1.33;;
19149;SDS011;9707;49.158;8.632;2023-07-30T07:03:50;1.48;;;1.30;;
19149;SDS011;9707;49.158;8.632;2023-07-30T07:06:15;1.60;;;1.23;;
19149;SDS011;9707;49.158;8.632;2023-07-30T07:08:41;2.22;;;1.15;;
19149;SDS011;9707;49.158;8.632;2023-07-30T07:11:06;2.13;;;1.15;;
19149;SDS011;9707;49.158;8.632;2023-07-30T07:13:31;1.02;;;0.80;;
19149;SDS011;9707;49.158;8.632;2023-07-30T07:15:59;2.47;;;0.90;;
19149;SDS011;9707;49.158;8.632;2023-07-30T07:18:24;1.27;;;0.90;;
19149;SDS011;9707;49.158;8.632;2023-07-30T07:20:50;1.55;;;0.90;;
19149;SDS011;9707;49.158;8.632;2023-07-30T07:23:15;1.40;;;0.93;;
19149;SDS011;9707;49.158;8.632;2023-07-30T07:25:40;1.20;;;0.77;;
19149;SDS011;9707;49.158;8.632;2023-07-30T07:28:05;1.30;;;1.02;;
19149;SDS011;9707;49.158;8.632;2023-07-30T07:30:31;1.50;;;0.80;;
19149;SDS011;9707;49.158;8.632;2023-07-30T07:32:59;1.42;;;0.95;;
19149;SDS011;9707;49.158;8.632;2023-07-30T07:35:25;1.35;;;0.93;;
19149;SDS011;9707;49.158;8.632;2023-07-30T07:37:50;3.22;;;1.33;;
19149;SDS011;9707;49.158;8.632;2023-07-30T07:40:15;1.63;;;1.13;;
19149;SDS011;9707;49.158;8.632;2023-07-30T07:42:41;1.58;;;1.05;;
19149;SDS011;9707;49.158;8.632;2023-07-30T07:45:06;2.78;;;1.50;;
19149;SDS011;9707;49.158;8.632;2023-07-30T07:47:32;2.28;;;1.67;;
19149;SDS011;9707;49.158;8.632;2023-07-30T07:49:57;2.15;;;1.30;;
19149;SDS011;9707;49.158;8.632;2023-07-30T07:52:23;3.67;;;1.70;;
19149;SDS011;9707;49.158;8.632;2023-07-30T07:54:48;2.67;;;1.45;;
19149;SDS011;9707;49.158;8.632;2023-07-30T07:57:13;3.47;;;1.58;;
19149;SDS011;9707;49.158;8.632;2023-07-30T07:59:38;1.88;;;1.30;;
19149;SDS011;9707;49.158;8.632;2023-07-30T08:02:04;1.75;;;1.45;;
19149;SDS011;9707;49.158;8.632;2023-07-30T08:04:30;2.72;;;1.25;;
19149;SDS011;9707;49.158;8.632;2023-07-30T08:06:55;4.20;;;1.90;;
19149;SDS011;9707;49.158;8.632;2023-07-30T08:09:24;1.85;;;1.23;;
19149;SDS011;9707;49.158;8.632;2023-07-30T08:11:50;2.75;;;1.50;;
19149;SDS011;9707;49.158;8.632;2023-07-30T08:14:15;2.00;;;1.50;;
19149;SDS011;9707;49.158;8.632;2023-07-30T08:16:40;1.95;;;1.60;;
19149;SDS011;9707;49.158;8.632;2023-07-30T08:19:06;1.70;;;1.60;;
19149;SDS011;9707;49.158;8.632;2023-07-30T08:21:31;2.58;;;1.85;;
19149;SDS011;9707;49.158;8.632;2023-07-30T08:23:56;2.38;;;1.80;;
19149;SDS011;9707;49.158;8.632;2023-07-30T08:26:21;3.42;;;1.98;;
19149;SDS011;9707;49.158;8.632;2023-07-30T08:28:47;3.20;;;1.38;;
19149;SDS011;9707;49.158;8.632;2023-07-30T08:31:12;1.88;;;1.42;;
19149;SDS011;9707;49.158;8.632;2023-07-30T08:33:37;1.90;;;1.50;;
19149;SDS011;9707;49.158;8.632;2023-07-30T08:36:02;3.90;;;1.88;;
19149;SDS011;9707;49.158;8.632;2023-07-30T08:38:28;5.88;;;2.72;;
19149;SDS011;9707;49.158;8.632;2023-07-30T08:40:53;4.35;;;1.42;;
19149;SDS011;9707;49.158;8.632;2023-07-30T08:43:18;2.75;;;1.30;;
19149;SDS011;9707;49.158;8.632;2023-07-30T08:45:44;4.28;;;1.55;;
19149;SDS011;9707;49.158;8.632;2023-07-30T08:48:09;2.30;;;1.30;;
19149;SDS011;9707;49.158;8.632;2023-07-30T08:50:35;1.65;;;1.23;;
19149;SDS011;9707;49.158;8.632;2023-07-30T08:53:02;2.53;;;1.33;;
19149;SDS011;9707;49.158;8.632;2023-07-30T08:55:28;2.65;;;1.25;;
19149;SDS011;9707;49.158;8.632;2023-07-30T08:57:55;2.38;;;1.23;;
19149;SDS011;9707;49.158;8.632;2023-07-30T09:00:23;2.58;;;1.30;;
19149;SDS011;9707;49.158;8.632;2023-07-30T09:02:53;1.60;;;1.05;;
19149;SDS011;9707;49.158;8.632;2023-07-30T09:05:21;1.70;;;1.17;;
19149;SDS011;9707;49.158;8.632;2023-07-30T09:07:47;2.45;;;1.27;;
19149;SDS011;9707;49.158;8.632;2023-07-30T09:10:13;2.53;;;1.42;;
19149;SDS011;9707;49.158;8.632;2023-07-30T09:12:39;1.52;;;1.30;;
19149;SDS011;9707;49.158;8.632;2023-07-30T09:15:05;2.42;;;1.33;;
19149;SDS011;9707;49.158;8.632;2023-07-30T09:17:32;3.13;;;1.50;;
19149;SDS011;9707;49.158;8.632;2023-07-30T09:20:01;3.22;;;1.42;;
19149;SDS011;9707;49.158;8.632;2023-07-30T09:22:29;2.95;;;1.50;;
19149;SDS011;9707;49.158;8.632;2023-07-30T09:25:01;1.20;;;1.08;;
19149;SDS011;9707;49.158;8.632;2023-07-30T09:27:28;1.73;;;1.48;;
19149;SDS011;9707;49.158;8.632;2023-07-30T09:29:54;1.38;;;1.00;;
19149;SDS011;9707;49.158;8.632;2023-07-30T09:32:25;1.58;;;1.38;;
19149;SDS011;9707;49.158;8.632;2023-07-30T09:34:52;2.42;;;1.33;;
19149;SDS011;9707;49.158;8.632;2023-07-30T09:37:18;2.47;;;1.35;;
19149;SDS011;9707;49.158;8.632;2023-07-30T09:39:43;1.88;;;1.50;;
19149;SDS011;9707;49.158;8.632;2023-07-30T09:42:08;1.77;;;1.48;;
19149;SDS011;9707;49.158;8.632;2023-07-30T09:44:34;1.75;;;1.45;;
19149;SDS011;9707;49.158;8.632;2023-07-30T09:47:02;1.52;;;1.10;;
19149;SDS011;9707;49.158;8.632;2023-07-30T09:49:30;1.75;;;1.33;;
19149;SDS011;9707;49.158;8.632;2023-07-30T09:51:56;3.50;;;1.27;;
19149;SDS011;9707;49.158;8.632;2023-07-30T09:54:22;1.67;;;1.20;;
19149;SDS011;9707;49.158;8.632;2023-07-30T09:56:48;3.22;;;1.65;;
19149;SDS011;9707;49.158;8.632;2023-07-30T09:59:13;2.55;;;1.23;;
19149;SDS011;9707;49.158;8.632;2023-07-30T10:01:48;3.28;;;1.55;;
19149;SDS011;9707;49.158;8.632;2023-07-30T10:04:14;1.88;;;1.42;;
19149;SDS011;9707;49.158;8.632;2023-07-30T10:06:45;3.50;;;1.20;;
19149;SDS011;9707;49.158;8.632;2023-07-30T10:09:14;1.92;;;1.40;;
19149;SDS011;9707;49.158;8.632;2023-07-30T10:11:42;5.13;;;1.50;;
19149;SDS011;9707;49.158;8.632;2023-07-30T10:14:09;1.40;;;1.25;;
19149;SDS011;9707;49.158;8.632;2023-07-30T10:16:36;2.35;;;1.30;;
19149;SDS011;9707;49.158;8.632;2023-07-30T10:19:01;1.50;;;1.10;;
19149;SDS011;9707;49.158;8.632;2023-07-30T10:21:27;1.92;;;1.50;;
19149;SDS011;9707;49.158;8.632;2023-07-30T10:24:01;1.95;;;1.52;;
19149;SDS011;9707;49.158;8.632;2023-07-30T10:26:28;3.03;;;1.25;;
19149;SDS011;9707;49.158;8.632;2023-07-30T10:31:52;1.92;;;1.38;;
19149;SDS011;9707;49.158;8.632;2023-07-30T10:34:21;2.45;;;1.50;;
19149;SDS011;9707;49.158;8.632;2023-07-30T10:36:50;2.15;;;1.20;;
19149;SDS011;9707;49.158;8.632;2023-07-30T10:39:17;3.42;;;1.70;;
19149;SDS011;9707;49.158;8.632;2023-07-30T10:41:45;1.70;;;1.20;;
19149;SDS011;9707;49.158;8.632;2023-07-30T10:47:12;1.85;;;1.05;;
19149;SDS011;9707;49.158;8.632;2023-07-30T10:49:38;2.63;;;1.15;;
19149;SDS011;9707;49.158;8.632;2023-07-30T10:52:05;2.47;;;1.33;;
19149;SDS011;9707;49.158;8.632;2023-07-30T10:54:34;2.67;;;1.13;;
19149;SDS011;9707;49.158;8.632;2023-07-30T10:56:59;1.45;;;0.93;;
19149;SDS011;9707;49.158;8.632;2023-07-30T10:59:25;1.98;;;1.02;;
19149;SDS011;9707;49.158;8.632;2023-07-30T11:01:52;1.35;;;1.05;;
19149;SDS011;9707;49.158;8.632;2023-07-30T11:04:18;2.10;;;1.20;;
19149;SDS011;9707;49.158;8.632;2023-07-30T11:06:49;2.00;;;0.98;;
19149;SDS011;9707;49.158;8.632;2023-07-30T11:09:22;2.05;;;1.23;;
19149;SDS011;9707;49.158;8.632;2023-07-30T11:11:50;3.42;;;1.30;;
19149;SDS011;9707;49.158;8.632;2023-07-30T11:14:19;2.78;;;1.00;;
19149;SDS011;9707;49.158;8.632;2023-07-30T11:16:49;2.28;;;0.80;;
19149;SDS011;9707;49.158;8.632;2023-07-30T11:19:16;1.33;;;0.98;;
19149;SDS011;9707;49.158;8.632;2023-07-30T11:21:46;0.98;;;0.82;;
19149;SDS011;9707;49.158;8.632;2023-07-30T11:24:12;2.65;;;0.68;;
19149;SDS011;9707;49.158;8.632;2023-07-30T11:26:38;2.42;;;0.85;;
19149;SDS011;9707;49.158;8.632;2023-07-30T11:29:19;1.35;;;0.65;;
19149;SDS011;9707;49.158;8.632;2023-07-30T11:31:45;1.90;;;0.82;;
19149;SDS011;9707;49.158;8.632;2023-07-30T11:34:12;1.42;;;0.70;;
19149;SDS011;9707;49.158;8.632;2023-07-30T11:36:39;1.75;;;0.75;;
19149;SDS011;9707;49.158;8.632;2023-07-30T11:39:06;1.80;;;0.70;;
19149;SDS011;9707;49.158;8.632;2023-07-30T11:41:32;2.20;;;0.90;;
19149;SDS011;9707;49.158;8.632;2023-07-30T11:43:58;2.28;;;0.70;;
19149;SDS011;9707;49.158;8.632;2023-07-30T11:46:24;3.08;;;0.82;;
19149;SDS011;9707;49.158;8.632;2023-07-30T11:48:50;0.90;;;0.60;;
19149;SDS011;9707;49.158;8.632;2023-07-30T11:51:34;1.90;;;1.05;;
19149;SDS011;9707;49.158;8.632;2023-07-30T11:54:00;1.48;;;0.80;;
19149;SDS011;9707;49.158;8.632;2023-07-30T11:56:27;1.65;;;0.90;;
19149;SDS011;9707;49.158;8.632;2023-07-30T11:58:55;1.02;;;0.70;;
19149;SDS011;9707;49.158;8.632;2023-07-30T12:01:22;2.30;;;0.90;;
19149;SDS011;9707;49.158;8.632;2023-07-30T12:03:49;2.38;;;0.88;;
19149;SDS011;9707;49.158;8.632;2023-07-30T12:06:14;4.18;;;1.15;;
19149;SDS011;9707;49.158;8.632;2023-07-30T12:08:40;1.98;;;0.90;;
19149;SDS011;9707;49.158;8.632;2023-07-30T12:11:06;2.20;;;0.93;;
19149;SDS011;9707;49.158;8.632;2023-07-30T12:13:33;2.05;;;1.15;;
19149;SDS011;9707;49.158;8.632;2023-07-30T12:15:59;2.97;;;0.80;;
19149;SDS011;9707;49.158;8.632;2023-07-30T12:18:25;3.65;;;0.80;;
19149;SDS011;9707;49.158;8.632;2023-07-30T12:20:51;2.13;;;0.90;;
19149;SDS011;9707;49.158;8.632;2023-07-30T12:23:18;3.63;;;0.60;;
19149;SDS011;9707;49.158;8.632;2023-07-30T12:25:44;1.00;;;0.90;;
19149;SDS011;9707;49.158;8.632;2023-07-30T12:28:09;2.80;;;0.80;;
19149;SDS011;9707;49.158;8.632;2023-07-30T12:30:35;3.17;;;1.30;;
19149;SDS011;9707;49.158;8.632;2023-07-30T12:33:01;2.00;;;0.65;;
19149;SDS011;9707;49.158;8.632;2023-07-30T12:35:27;2.38;;;1.17;;
19149;SDS011;9707;49.158;8.632;2023-07-30T12:37:53;3.90;;;1.30;;
19149;SDS011;9707;49.158;8.632;2023-07-30T12:40:18;1.80;;;0.93;;
19149;SDS011;9707;49.158;8.632;2023-07-30T12:42:43;2.75;;;1.05;;
19149;SDS011;9707;49.158;8.632;2023-07-30T12:45:09;3.25;;;1.13;;
19149;SDS011;9707;49.158;8.632;2023-07-30T12:47:34;3.78;;;1.33;;
19149;SDS011;9707;49.158;8.632;2023-07-30T12:50:03;3.03;;;1.10;;
19149;SDS011;9707;49.158;8.632;2023-07-30T12:52:29;3.60;;;1.10;;
19149;SDS011;9707;49.158;8.632;2023-07-30T12:54:54;2.78;;;1.20;;
19149;SDS011;9707;49.158;8.632;2023-07-30T12:57:20;4.18;;;1.20;;
19149;SDS011;9707;49.158;8.632;2023-07-30T12:59:45;1.65;;;0.90;;
19149;SDS011;9707;49.158;8.632;2023-07-30T13:02:10;2.95;;;1.15;;
19149;SDS011;9707;49.158;8.632;2023-07-30T13:04:35;3.60;;;1.30;;
19149;SDS011;9707;49.158;8.632;2023-07-30T13:07:01;2.28;;;1.15;;
19149;SDS011;9707;49.158;8.632;2023-07-30T13:09:27;2.25;;;1.00;;
19149;SDS011;9707;49.158;8.632;2023-07-30T13:11:53;2.72;;;1.20;;
19149;SDS011;9707;49.158;8.632;2023-07-30T13:14:18;2.55;;;1.00;;
19149;SDS011;9707;49.158;8.632;2023-07-30T13:16:43;3.88;;;1.40;;
19149;SDS011;9707;49.158;8.632;2023-07-30T13:19:09;2.95;;;1.27;;
19149;SDS011;9707;49.158;8.632;2023-07-30T13:21:34;2.03;;;1.17;;
19149;SDS011;9707;49.158;8.632;2023-07-30T13:23:59;3.85;;;1.10;;
19149;SDS011;9707;49.158;8.632;2023-07-30T13:26:24;3.85;;;1.17;;
19149;SDS011;9707;49.158;8.632;2023-07-30T13:28:50;2.88;;;1.00;;
19149;SDS011;9707;49.158;8.632;2023-07-30T13:31:15;2.72;;;0.98;;
19149;SDS011;9707;49.158;8.632;2023-07-30T13:33:40;1.70;;;0.90;;
19149;SDS011;9707;49.158;8.632;2023-07-30T13:36:05;4.90;;;1.10;;
19149;SDS011;9707;49.158;8.632;2023-07-30T13:38:31;2.03;;;0.80;;
19149;SDS011;9707;49.158;8.632;2023-07-30T13:40:56;2.80;;;1.25;;
19149;SDS011;9707;49.158;8.632;2023-07-30T13:43:22;4.75;;;1.33;;
19149;SDS011;9707;49.158;8.632;2023-07-30T13:45:47;5.35;;;1.20;;
19149;SDS011;9707;49.158;8.632;2023-07-30T13:48:19;3.05;;;1.00;;
19149;SDS011;9707;49.158;8.632;2023-07-30T13:50:44;3.05;;;1.35;;
19149;SDS011;9707;49.158;8.632;2023-07-30T13:53:09;2.65;;;0.80;;
19149;SDS011;9707;49.158;8.632;2023-07-30T13:55:35;4.18;;;0.93;;
19149;SDS011;9707;49.158;8.632;2023-07-30T13:58:00;3.08;;;1.10;;
19149;SDS011;9707;49.158;8.632;2023-07-30T14:00:25;3.22;;;1.38;;
19149;SDS011;9707;49.158;8.632;2023-07-30T14:02:51;2.67;;;1.00;;
19149;SDS011;9707;49.158;8.632;2023-07-30T14:05:16;3.08;;;1.10;;
19149;SDS011;9707;49.158;8.632;2023-07-30T14:07:42;2.35;;;0.80;;
19149;SDS011;9707;49.158;8.632;2023-07-30T14:10:07;2.83;;;0.80;;
19149;SDS011;9707;49.158;8.632;2023-07-30T14:12:34;3.13;;;1.15;;
19149;SDS011;9707;49.158;8.632;2023-07-30T14:15:02;4.82;;;0.98;;
19149;SDS011;9707;49.158;8.632;2023-07-30T14:17:27;2.70;;;1.10;;
19149;SDS011;9707;49.158;8.632;2023-07-30T14:19:52;3.35;;;1.00;;
19149;SDS011;9707;49.158;8.632;2023-07-30T14:22:20;4.72;;;1.00;;
19149;SDS011;9707;49.158;8.632;2023-07-30T14:24:45;1.90;;;0.93;;
19149;SDS011;9707;49.158;8.632;2023-07-30T14:27:11;2.80;;;0.90;;
19149;SDS011;9707;49.158;8.632;2023-07-30T14:29:36;4.07;;;1.40;;
19149;SDS011;9707;49.158;8.632;2023-07-30T14:32:01;2.53;;;1.00;;
19149;SDS011;9707;49.158;8.632;2023-07-30T14:34:27;3.60;;;1.10;;
19149;SDS011;9707;49.158;8.632;2023-07-30T14:36:52;3.53;;;0.90;;
19149;SDS011;9707;49.158;8.632;2023-07-30T14:39:17;5.20;;;1.23;;
19149;SDS011;9707;49.158;8.632;2023-07-30T14:41:42;3.38;;;1.10;;
19149;SDS011;9707;49.158;8.632;2023-07-30T14:44:08;4.70;;;1.00;;
19149;SDS011;9707;49.158;8.632;2023-07-30T14:46:33;4.53;;;1.40;;
19149;SDS011;9707;49.158;8.632;2023-07-30T14:48:58;5.22;;;1.08;;
19149;SDS011;9707;49.158;8.632;2023-07-30T14:51:23;4.55;;;0.93;;
19149;SDS011;9707;49.158;8.632;2023-07-30T14:53:49;1.90;;;0.80;;
19149;SDS011;9707;49.158;8.632;2023-07-30T14:56:14;2.92;;;0.95;;
19149;SDS011;9707;49.158;8.632;2023-07-30T14:58:39;3.72;;;0.90;;